createdAt,value
2022-11-29T00:00:17.815Z,822.00
2022-11-29T00:00:47.852Z,822.00
2022-11-29T00:01:17.893Z,821.00
2022-11-29T00:01:47.947Z,821.00
2022-11-29T00:02:18.051Z,822.00
2022-11-29T00:02:48.121Z,823.00
2022-11-29T00:03:18.186Z,826.00
2022-11-29T00:03:48.127Z,827.00
2022-11-29T00:04:18.160Z,826.00
2022-11-29T00:04:48.189Z,826.00
2022-11-29T00:05:18.221Z,826.00
2022-11-29T00:05:48.258Z,826.00
2022-11-29T00:06:18.335Z,827.00
2022-11-29T00:06:48.343Z,828.00
2022-11-29T00:07:18.412Z,827.00
2022-11-29T00:07:48.488Z,829.00
2022-11-29T00:08:18.528Z,829.00
2022-11-29T00:08:48.558Z,828.00
2022-11-29T00:09:18.584Z,826.00
2022-11-29T00:09:48.619Z,827.00
2022-11-29T00:10:18.648Z,825.00
2022-11-29T00:10:48.675Z,825.00
2022-11-29T00:11:18.714Z,825.00
2022-11-29T00:11:48.749Z,824.00
2022-11-29T00:12:18.777Z,823.00
2022-11-29T00:12:48.808Z,821.00
2022-11-29T00:13:18.846Z,823.00
2022-11-29T00:13:48.871Z,822.00
2022-11-29T00:14:18.912Z,822.00
2022-11-29T00:14:48.938Z,823.00
2022-11-29T00:15:18.968Z,823.00
2022-11-29T00:15:49.003Z,824.00
2022-11-29T00:16:19.068Z,827.00
2022-11-29T00:16:49.124Z,828.00
2022-11-29T00:17:19.150Z,828.00
2022-11-29T00:17:49.190Z,828.00
2022-11-29T00:18:19.214Z,827.00
2022-11-29T00:18:49.249Z,826.00
2022-11-29T00:19:19.281Z,826.00
2022-11-29T00:19:49.313Z,825.00
2022-11-29T00:20:19.348Z,823.00
2022-11-29T00:20:49.383Z,821.00
2022-11-29T00:21:19.414Z,821.00
2022-11-29T00:21:49.476Z,822.00
2022-11-29T00:22:19.482Z,823.00
2022-11-29T00:22:49.519Z,821.00
2022-11-29T00:23:19.550Z,821.00
2022-11-29T00:23:49.579Z,819.00
2022-11-29T00:24:19.609Z,818.00
2022-11-29T00:24:49.670Z,817.00
2022-11-29T00:25:19.692Z,817.00
2022-11-29T00:25:49.762Z,818.00
2022-11-29T00:26:19.793Z,818.00
2022-11-29T00:26:49.826Z,818.00
2022-11-29T00:27:19.856Z,817.00
2022-11-29T00:27:49.889Z,816.00
2022-11-29T00:28:19.921Z,816.00
2022-11-29T00:28:49.954Z,816.00
2022-11-29T00:29:19.987Z,817.00
2022-11-29T00:29:50.015Z,819.00
2022-11-29T00:30:20.052Z,820.00
2022-11-29T00:30:50.131Z,819.00
2022-11-29T00:31:20.141Z,817.00
2022-11-29T00:31:50.176Z,817.00
2022-11-29T00:32:20.214Z,816.00
2022-11-29T00:32:50.254Z,816.00
2022-11-29T00:33:20.280Z,815.00
2022-11-29T00:33:50.333Z,815.00
2022-11-29T00:34:20.353Z,816.00
2022-11-29T00:34:50.388Z,815.00
2022-11-29T00:35:20.422Z,815.00
2022-11-29T00:35:50.517Z,815.00
2022-11-29T00:36:20.551Z,816.00
2022-11-29T00:36:50.582Z,815.00
2022-11-29T00:37:20.639Z,815.00
2022-11-29T00:37:50.645Z,816.00
2022-11-29T00:38:20.682Z,816.00
2022-11-29T00:38:50.718Z,817.00
2022-11-29T00:39:20.753Z,816.00
2022-11-29T00:39:50.788Z,815.00
2022-11-29T00:40:20.819Z,814.00
2022-11-29T00:40:50.867Z,812.00
2022-11-29T00:41:20.899Z,812.00
2022-11-29T00:41:50.931Z,812.00
2022-11-29T00:42:20.968Z,811.00
2022-11-29T00:42:51.000Z,812.00
2022-11-29T00:43:21.029Z,812.00
2022-11-29T00:43:51.069Z,813.00
2022-11-29T00:44:21.116Z,813.00
2022-11-29T00:44:51.133Z,814.00
2022-11-29T00:45:21.161Z,816.00
2022-11-29T00:45:51.348Z,813.00
2022-11-29T00:46:21.333Z,812.00
2022-11-29T00:46:51.352Z,812.00
2022-11-29T00:47:21.472Z,812.00
2022-11-29T00:47:51.470Z,811.00
2022-11-29T00:48:21.592Z,810.00
2022-11-29T00:48:51.583Z,808.00
2022-11-29T00:49:21.701Z,808.00
2022-11-29T00:49:51.687Z,808.00
2022-11-29T00:50:21.810Z,809.00
2022-11-29T00:50:51.820Z,808.00
2022-11-29T00:51:21.817Z,809.00
2022-11-29T00:51:51.810Z,810.00
2022-11-29T00:52:21.960Z,811.00
2022-11-29T00:52:52.047Z,810.00
2022-11-29T00:53:22.168Z,811.00
2022-11-29T00:53:52.166Z,811.00
2022-11-29T00:54:22.286Z,810.00
2022-11-29T00:54:52.281Z,813.00
2022-11-29T00:55:22.277Z,813.00
2022-11-29T00:55:52.288Z,812.00
2022-11-29T00:56:22.282Z,811.00
2022-11-29T00:56:52.283Z,810.00
2022-11-29T00:57:22.316Z,808.00
2022-11-29T00:57:52.350Z,809.00
2022-11-29T00:58:22.376Z,810.00
2022-11-29T00:58:52.417Z,810.00
2022-11-29T00:59:22.447Z,813.00
2022-11-29T00:59:52.484Z,813.00
2022-11-29T01:00:22.512Z,812.00
2022-11-29T01:00:52.610Z,811.00
2022-11-29T01:01:22.718Z,810.00
2022-11-29T01:01:52.753Z,808.00
2022-11-29T01:02:22.849Z,807.00
2022-11-29T01:02:52.891Z,804.00
2022-11-29T01:03:22.931Z,803.00
2022-11-29T01:03:52.963Z,803.00
2022-11-29T01:04:22.995Z,800.00
2022-11-29T01:04:53.041Z,798.00
2022-11-29T01:05:23.062Z,799.00
2022-11-29T01:05:53.101Z,799.00
2022-11-29T01:06:23.139Z,799.00
2022-11-29T01:06:53.170Z,799.00
2022-11-29T01:07:23.255Z,798.00
2022-11-29T01:07:53.453Z,798.00
2022-11-29T01:08:23.362Z,798.00
2022-11-29T01:08:53.396Z,797.00
2022-11-29T01:09:23.429Z,799.00
2022-11-29T01:09:53.471Z,798.00
2022-11-29T01:10:23.498Z,797.00
2022-11-29T01:10:53.546Z,796.00
2022-11-29T01:11:23.581Z,795.00
2022-11-29T01:11:53.611Z,795.00
2022-11-29T01:12:23.644Z,796.00
2022-11-29T01:12:53.675Z,796.00
2022-11-29T01:13:23.705Z,796.00
2022-11-29T01:13:53.789Z,796.00
2022-11-29T01:14:23.824Z,797.00
2022-11-29T01:14:53.852Z,796.00
2022-11-29T01:15:23.879Z,798.00
2022-11-29T01:15:53.946Z,798.00
2022-11-29T01:16:24.051Z,797.00
2022-11-29T01:16:54.137Z,798.00
2022-11-29T01:17:24.156Z,795.00
2022-11-29T01:17:54.182Z,795.00
2022-11-29T01:18:24.212Z,795.00
2022-11-29T01:18:54.241Z,794.00
2022-11-29T01:19:24.274Z,795.00
2022-11-29T01:19:54.318Z,796.00
2022-11-29T01:20:24.342Z,796.00
2022-11-29T01:20:54.399Z,796.00
2022-11-29T01:21:24.459Z,796.00
2022-11-29T01:21:54.482Z,795.00
2022-11-29T01:22:24.514Z,793.00
2022-11-29T01:22:54.547Z,793.00
2022-11-29T01:23:24.606Z,792.00
2022-11-29T01:23:54.615Z,793.00
2022-11-29T01:24:24.660Z,793.00
2022-11-29T01:24:54.689Z,792.00
2022-11-29T01:25:24.719Z,792.00
2022-11-29T01:25:54.757Z,790.00
2022-11-29T01:26:24.831Z,787.00
2022-11-29T01:26:54.867Z,785.00
2022-11-29T01:27:24.899Z,784.00
2022-11-29T01:27:54.924Z,784.00
2022-11-29T01:28:24.961Z,785.00
2022-11-29T01:28:54.996Z,786.00
2022-11-29T01:29:25.022Z,788.00
2022-11-29T01:29:55.056Z,787.00
2022-11-29T01:30:25.134Z,789.00
2022-11-29T01:30:55.191Z,788.00
2022-11-29T01:31:25.247Z,790.00
2022-11-29T01:31:55.259Z,790.00
2022-11-29T01:32:25.288Z,791.00
2022-11-29T01:32:55.319Z,791.00
2022-11-29T01:33:25.353Z,790.00
2022-11-29T01:33:55.386Z,790.00
2022-11-29T01:34:25.416Z,790.00
2022-11-29T01:34:55.448Z,790.00
2022-11-29T01:35:25.474Z,789.00
2022-11-29T01:35:55.505Z,788.00
2022-11-29T01:36:25.547Z,787.00
2022-11-29T01:36:55.573Z,788.00
2022-11-29T01:37:25.611Z,790.00
2022-11-29T01:37:55.647Z,791.00
2022-11-29T01:38:25.679Z,792.00
2022-11-29T01:38:55.740Z,791.00
2022-11-29T01:39:25.746Z,790.00
2022-11-29T01:39:55.771Z,791.00
2022-11-29T01:40:25.807Z,791.00
2022-11-29T01:40:55.861Z,789.00
2022-11-29T01:41:25.885Z,789.00
2022-11-29T01:41:55.916Z,788.00
2022-11-29T01:42:25.949Z,789.00
2022-11-29T01:42:55.972Z,788.00
2022-11-29T01:43:26.012Z,787.00
2022-11-29T01:43:56.038Z,788.00
2022-11-29T01:44:26.066Z,785.00
2022-11-29T01:44:56.099Z,786.00
2022-11-29T01:45:26.138Z,786.00
2022-11-29T01:45:56.205Z,784.00
2022-11-29T01:46:26.261Z,785.00
2022-11-29T01:46:56.264Z,788.00
2022-11-29T01:47:26.381Z,788.00
2022-11-29T01:47:56.494Z,786.00
2022-11-29T01:48:26.496Z,783.00
2022-11-29T01:48:56.608Z,782.00
2022-11-29T01:49:26.607Z,781.00
2022-11-29T01:49:56.600Z,782.00
2022-11-29T01:50:26.716Z,781.00
2022-11-29T01:50:56.855Z,781.00
2022-11-29T01:51:26.867Z,781.00
2022-11-29T01:51:56.857Z,781.00
2022-11-29T01:52:26.867Z,781.00
2022-11-29T01:52:56.860Z,781.00
2022-11-29T01:53:26.987Z,781.00
2022-11-29T01:53:57.088Z,782.00
2022-11-29T01:54:27.230Z,783.00
2022-11-29T01:54:57.205Z,784.00
2022-11-29T01:55:27.321Z,785.00
2022-11-29T01:55:57.464Z,784.00
2022-11-29T01:56:27.455Z,784.00
2022-11-29T01:56:57.462Z,784.00
2022-11-29T01:57:27.497Z,783.00
2022-11-29T01:57:57.528Z,781.00
2022-11-29T01:58:27.560Z,780.00
2022-11-29T01:58:57.594Z,781.00
2022-11-29T01:59:27.622Z,780.00
2022-11-29T01:59:57.655Z,780.00
2022-11-29T02:00:27.687Z,780.00
2022-11-29T02:00:57.742Z,781.00
2022-11-29T02:01:27.831Z,781.00
2022-11-29T02:01:57.864Z,780.00
2022-11-29T02:02:27.981Z,780.00
2022-11-29T02:02:57.917Z,781.00
2022-11-29T02:03:27.931Z,779.00
2022-11-29T02:03:57.958Z,777.00
2022-11-29T02:04:27.994Z,775.00
2022-11-29T02:04:58.022Z,775.00
2022-11-29T02:05:28.059Z,775.00
2022-11-29T02:05:58.090Z,773.00
2022-11-29T02:06:28.195Z,774.00
2022-11-29T02:06:58.206Z,775.00
2022-11-29T02:07:28.298Z,774.00
2022-11-29T02:07:58.357Z,774.00
2022-11-29T02:08:28.403Z,776.00
2022-11-29T02:08:58.432Z,776.00
2022-11-29T02:09:28.457Z,777.00
2022-11-29T02:09:58.514Z,777.00
2022-11-29T02:10:28.524Z,777.00
2022-11-29T02:10:58.551Z,775.00
2022-11-29T02:11:28.599Z,773.00
2022-11-29T02:11:58.634Z,772.00
2022-11-29T02:12:28.673Z,770.00
2022-11-29T02:12:58.707Z,769.00
2022-11-29T02:13:28.748Z,768.00
2022-11-29T02:13:58.790Z,770.00
2022-11-29T02:14:28.821Z,770.00
2022-11-29T02:14:58.846Z,769.00
2022-11-29T02:15:28.975Z,770.00
2022-11-29T02:15:58.923Z,772.00
2022-11-29T02:16:28.971Z,773.00
2022-11-29T02:16:59.011Z,773.00
2022-11-29T02:17:29.044Z,772.00
2022-11-29T02:17:59.072Z,772.00
2022-11-29T02:18:29.151Z,772.00
2022-11-29T02:18:59.179Z,771.00
2022-11-29T02:19:29.204Z,771.00
2022-11-29T02:19:59.241Z,772.00
2022-11-29T02:20:29.273Z,771.00
2022-11-29T02:20:59.300Z,772.00
2022-11-29T02:21:29.330Z,773.00
2022-11-29T02:21:59.377Z,772.00
2022-11-29T02:22:29.407Z,772.00
2022-11-29T02:22:59.444Z,771.00
2022-11-29T02:23:29.468Z,771.00
2022-11-29T02:23:59.499Z,771.00
2022-11-29T02:24:29.535Z,771.00
2022-11-29T02:24:59.563Z,771.00
2022-11-29T02:25:29.626Z,772.00
2022-11-29T02:25:59.636Z,772.00
2022-11-29T02:26:29.666Z,772.00
2022-11-29T02:26:59.698Z,772.00
2022-11-29T02:27:29.731Z,771.00
2022-11-29T02:27:59.758Z,772.00
2022-11-29T02:28:29.794Z,772.00
2022-11-29T02:28:59.824Z,773.00
2022-11-29T02:29:29.852Z,771.00
2022-11-29T02:29:59.902Z,772.00
2022-11-29T02:30:29.969Z,773.00
2022-11-29T02:31:00.073Z,773.00
2022-11-29T02:31:30.060Z,771.00
2022-11-29T02:32:00.154Z,771.00
2022-11-29T02:32:30.182Z,769.00
2022-11-29T02:33:00.235Z,769.00
2022-11-29T02:33:30.288Z,769.00
2022-11-29T02:34:00.351Z,768.00
2022-11-29T02:34:30.414Z,767.00
2022-11-29T02:35:00.450Z,768.00
2022-11-29T02:35:30.489Z,770.00
2022-11-29T02:36:00.525Z,771.00
2022-11-29T02:36:30.559Z,771.00
2022-11-29T02:37:00.699Z,772.00
2022-11-29T02:37:30.755Z,772.00
2022-11-29T02:38:00.794Z,769.00
2022-11-29T02:38:30.836Z,769.00
2022-11-29T02:39:00.899Z,770.00
2022-11-29T02:39:30.934Z,770.00
2022-11-29T02:40:00.992Z,769.00
2022-11-29T02:40:31.077Z,769.00
2022-11-29T02:41:01.131Z,768.00
2022-11-29T02:41:31.161Z,769.00
2022-11-29T02:42:01.181Z,769.00
2022-11-29T02:42:31.209Z,769.00
2022-11-29T02:43:01.240Z,768.00
2022-11-29T02:43:31.277Z,766.00
2022-11-29T02:44:01.313Z,767.00
2022-11-29T02:44:31.344Z,765.00
2022-11-29T02:45:01.372Z,768.00
2022-11-29T02:45:31.404Z,768.00
2022-11-29T02:46:01.496Z,769.00
2022-11-29T02:46:31.604Z,769.00
2022-11-29T02:47:01.595Z,768.00
2022-11-29T02:47:31.712Z,767.00
2022-11-29T02:48:01.705Z,767.00
2022-11-29T02:48:31.707Z,767.00
2022-11-29T02:49:01.694Z,766.00
2022-11-29T02:49:31.819Z,764.00
2022-11-29T02:50:01.933Z,763.00
2022-11-29T02:50:31.931Z,763.00
2022-11-29T02:51:01.937Z,762.00
2022-11-29T02:51:32.064Z,762.00
2022-11-29T02:52:02.065Z,763.00
2022-11-29T02:52:32.062Z,763.00
2022-11-29T02:53:02.193Z,763.00
2022-11-29T02:53:32.175Z,763.00
2022-11-29T02:54:02.171Z,762.00
2022-11-29T02:54:32.287Z,759.00
2022-11-29T02:55:02.282Z,761.00
2022-11-29T02:55:32.277Z,760.00
2022-11-29T02:56:02.428Z,761.00
2022-11-29T02:56:32.387Z,760.00
2022-11-29T02:57:02.430Z,761.00
2022-11-29T02:57:32.454Z,762.00
2022-11-29T02:58:02.492Z,761.00
2022-11-29T02:58:32.527Z,760.00
2022-11-29T02:59:02.556Z,759.00
2022-11-29T02:59:32.584Z,759.00
2022-11-29T03:00:02.635Z,757.00
2022-11-29T03:00:32.653Z,758.00
2022-11-29T03:01:02.784Z,761.00
2022-11-29T03:01:32.787Z,761.00
2022-11-29T03:02:02.828Z,762.00
2022-11-29T03:02:32.909Z,763.00
2022-11-29T03:03:02.918Z,762.00
2022-11-29T03:03:32.945Z,763.00
2022-11-29T03:04:02.976Z,762.00
2022-11-29T03:04:33.008Z,761.00
2022-11-29T03:05:03.034Z,758.00
2022-11-29T03:05:33.065Z,759.00
2022-11-29T03:06:03.096Z,760.00
2022-11-29T03:06:33.123Z,760.00
2022-11-29T03:07:03.211Z,759.00
2022-11-29T03:07:33.259Z,756.00
2022-11-29T03:08:03.272Z,754.00
2022-11-29T03:08:33.309Z,755.00
2022-11-29T03:09:03.339Z,756.00
2022-11-29T03:09:33.366Z,753.00
2022-11-29T03:10:03.406Z,753.00
2022-11-29T03:10:33.433Z,752.00
2022-11-29T03:11:03.457Z,752.00
2022-11-29T03:11:33.540Z,752.00
2022-11-29T03:12:03.545Z,753.00
2022-11-29T03:12:33.572Z,754.00
2022-11-29T03:13:03.602Z,753.00
2022-11-29T03:13:33.634Z,754.00
2022-11-29T03:14:03.661Z,754.00
2022-11-29T03:14:33.693Z,753.00
2022-11-29T03:15:03.725Z,753.00
2022-11-29T03:15:33.830Z,753.00
2022-11-29T03:16:03.924Z,752.00
2022-11-29T03:16:37.191Z,751.00
2022-11-29T03:17:04.011Z,750.00
2022-11-29T03:17:34.044Z,753.00
2022-11-29T03:18:04.072Z,754.00
2022-11-29T03:18:34.098Z,755.00
2022-11-29T03:19:04.131Z,756.00
2022-11-29T03:19:34.161Z,757.00
2022-11-29T03:20:04.202Z,757.00
2022-11-29T03:20:34.224Z,757.00
2022-11-29T03:21:04.277Z,755.00
2022-11-29T03:21:34.314Z,754.00
2022-11-29T03:22:04.336Z,753.00
2022-11-29T03:22:34.370Z,755.00
2022-11-29T03:23:04.399Z,754.00
2022-11-29T03:23:34.433Z,753.00
2022-11-29T03:24:04.459Z,752.00
2022-11-29T03:24:34.492Z,752.00
2022-11-29T03:25:04.522Z,751.00
2022-11-29T03:25:34.551Z,752.00
2022-11-29T03:26:04.582Z,752.00
2022-11-29T03:26:34.616Z,754.00
2022-11-29T03:27:04.666Z,755.00
2022-11-29T03:27:34.676Z,756.00
2022-11-29T03:28:04.710Z,754.00
2022-11-29T03:28:34.737Z,754.00
2022-11-29T03:29:04.772Z,752.00
2022-11-29T03:29:34.803Z,750.00
2022-11-29T03:30:04.831Z,750.00
2022-11-29T03:30:34.863Z,750.00
2022-11-29T03:31:04.958Z,750.00
2022-11-29T03:31:34.970Z,751.00
2022-11-29T03:32:05.016Z,752.00
2022-11-29T03:32:35.045Z,753.00
2022-11-29T03:33:05.078Z,751.00
2022-11-29T03:33:35.114Z,752.00
2022-11-29T03:34:05.153Z,752.00
2022-11-29T03:34:35.177Z,752.00
2022-11-29T03:35:05.206Z,751.00
2022-11-29T03:35:35.242Z,751.00
2022-11-29T03:36:05.273Z,751.00
2022-11-29T03:36:35.302Z,750.00
2022-11-29T03:37:05.365Z,748.00
2022-11-29T03:37:35.391Z,748.00
2022-11-29T03:38:05.419Z,746.00
2022-11-29T03:38:35.454Z,743.00
2022-11-29T03:39:05.493Z,742.00
2022-11-29T03:39:35.524Z,741.00
2022-11-29T03:40:05.569Z,740.00
2022-11-29T03:40:35.593Z,739.00
2022-11-29T03:41:05.631Z,741.00
2022-11-29T03:41:35.659Z,741.00
2022-11-29T03:42:05.701Z,740.00
2022-11-29T03:42:35.780Z,740.00
2022-11-29T03:43:05.779Z,737.00
2022-11-29T03:43:35.811Z,739.00
2022-11-29T03:44:05.841Z,738.00
2022-11-29T03:44:35.869Z,738.00
2022-11-29T03:45:05.901Z,738.00
2022-11-29T03:45:35.927Z,738.00
2022-11-29T03:46:05.985Z,739.00
2022-11-29T03:46:36.168Z,738.00
2022-11-29T03:47:06.060Z,739.00
2022-11-29T03:47:36.219Z,740.00
2022-11-29T03:48:06.211Z,740.00
2022-11-29T03:48:36.326Z,740.00
2022-11-29T03:49:06.441Z,740.00
2022-11-29T03:49:36.437Z,740.00
2022-11-29T03:50:06.553Z,741.00
2022-11-29T03:50:36.663Z,741.00
2022-11-29T03:51:06.815Z,742.00
2022-11-29T03:51:36.824Z,742.00
2022-11-29T03:52:06.807Z,743.00
2022-11-29T03:52:36.797Z,745.00
2022-11-29T03:53:06.807Z,744.00
2022-11-29T03:53:36.851Z,745.00
2022-11-29T03:54:06.972Z,744.00
2022-11-29T03:54:37.089Z,744.00
2022-11-29T03:55:07.209Z,743.00
2022-11-29T03:55:37.205Z,742.00
2022-11-29T03:56:07.326Z,743.00
2022-11-29T03:56:37.443Z,743.00
2022-11-29T03:57:07.474Z,742.00
2022-11-29T03:57:37.504Z,743.00
2022-11-29T03:58:07.568Z,743.00
2022-11-29T03:58:37.582Z,743.00
2022-11-29T03:59:07.606Z,742.00
2022-11-29T03:59:37.634Z,743.00
2022-11-29T04:00:07.670Z,744.00
2022-11-29T04:00:37.699Z,743.00
2022-11-29T04:01:07.792Z,741.00
2022-11-29T04:01:37.954Z,739.00
2022-11-29T04:02:07.861Z,738.00
2022-11-29T04:02:37.963Z,738.00
2022-11-29T04:03:08.004Z,735.00
2022-11-29T04:03:38.029Z,735.00
2022-11-29T04:04:08.070Z,735.00
2022-11-29T04:04:38.094Z,736.00
2022-11-29T04:05:08.122Z,738.00
2022-11-29T04:05:38.153Z,739.00
2022-11-29T04:06:08.182Z,739.00
2022-11-29T04:06:38.226Z,738.00
2022-11-29T04:07:08.258Z,741.00
2022-11-29T04:07:38.368Z,740.00
2022-11-29T04:08:08.372Z,741.00
2022-11-29T04:08:38.407Z,742.00
2022-11-29T04:09:08.439Z,741.00
2022-11-29T04:09:38.467Z,742.00
2022-11-29T04:10:08.501Z,742.00
2022-11-29T04:10:38.506Z,742.00
2022-11-29T04:11:08.521Z,744.00
2022-11-29T04:11:38.572Z,746.00
2022-11-29T04:12:08.614Z,745.00
2022-11-29T04:12:38.639Z,744.00
2022-11-29T04:13:08.691Z,744.00
2022-11-29T04:13:38.752Z,744.00
2022-11-29T04:14:08.763Z,744.00
2022-11-29T04:14:38.790Z,743.00
2022-11-29T04:15:14.103Z,743.00
2022-11-29T04:15:38.929Z,742.00
2022-11-29T04:16:09.027Z,741.00
2022-11-29T04:16:39.068Z,741.00
2022-11-29T04:17:09.099Z,742.00
2022-11-29T04:17:39.132Z,742.00
2022-11-29T04:18:09.232Z,741.00
2022-11-29T04:18:39.270Z,741.00
2022-11-29T04:19:09.305Z,740.00
2022-11-29T04:19:39.334Z,738.00
2022-11-29T04:20:09.371Z,738.00
2022-11-29T04:20:42.091Z,739.00
2022-11-29T04:21:09.442Z,740.00
2022-11-29T04:21:39.485Z,739.00
2022-11-29T04:22:09.520Z,736.00
2022-11-29T04:22:39.551Z,737.00
2022-11-29T04:23:09.592Z,736.00
2022-11-29T04:23:39.627Z,735.00
2022-11-29T04:24:09.668Z,737.00
2022-11-29T04:24:39.707Z,738.00
2022-11-29T04:25:09.740Z,736.00
2022-11-29T04:25:39.766Z,739.00
2022-11-29T04:26:09.802Z,740.00
2022-11-29T04:26:39.832Z,742.00
2022-11-29T04:27:09.861Z,744.00
2022-11-29T04:27:39.886Z,743.00
2022-11-29T04:28:09.932Z,741.00
2022-11-29T04:28:39.968Z,742.00
2022-11-29T04:29:10.021Z,741.00
2022-11-29T04:29:40.038Z,741.00
2022-11-29T04:30:10.061Z,741.00
2022-11-29T04:30:40.105Z,739.00
2022-11-29T04:31:10.199Z,737.00
2022-11-29T04:31:40.158Z,738.00
2022-11-29T04:32:10.199Z,738.00
2022-11-29T04:32:40.224Z,738.00
2022-11-29T04:33:10.265Z,736.00
2022-11-29T04:33:40.294Z,737.00
2022-11-29T04:34:10.332Z,736.00
2022-11-29T04:34:40.380Z,738.00
2022-11-29T04:35:10.421Z,739.00
2022-11-29T04:35:40.458Z,737.00
2022-11-29T04:36:10.483Z,736.00
2022-11-29T04:36:40.537Z,736.00
2022-11-29T04:37:10.576Z,737.00
2022-11-29T04:37:40.602Z,739.00
2022-11-29T04:38:10.635Z,738.00
2022-11-29T04:38:40.661Z,738.00
2022-11-29T04:39:10.691Z,738.00
2022-11-29T04:39:40.721Z,739.00
2022-11-29T04:40:10.750Z,738.00
2022-11-29T04:40:40.779Z,735.00
2022-11-29T04:41:10.814Z,736.00
2022-11-29T04:41:40.853Z,739.00
2022-11-29T04:42:10.883Z,739.00
2022-11-29T04:42:40.914Z,739.00
2022-11-29T04:43:10.946Z,739.00
2022-11-29T04:43:40.979Z,738.00
2022-11-29T04:44:11.016Z,738.00
2022-11-29T04:44:41.069Z,737.00
2022-11-29T04:45:11.078Z,737.00
2022-11-29T04:45:41.108Z,738.00
2022-11-29T04:46:11.151Z,739.00
2022-11-29T04:46:41.385Z,737.00
2022-11-29T04:47:11.256Z,740.00
2022-11-29T04:47:41.376Z,740.00
2022-11-29T04:48:11.370Z,740.00
2022-11-29T04:48:41.366Z,741.00
2022-11-29T04:49:11.490Z,741.00
2022-11-29T04:49:41.478Z,741.00
2022-11-29T04:50:11.602Z,742.00
2022-11-29T04:50:41.710Z,743.00
2022-11-29T04:51:11.707Z,742.00
2022-11-29T04:51:41.704Z,742.00
2022-11-29T04:52:11.824Z,743.00
2022-11-29T04:52:41.817Z,744.00
2022-11-29T04:53:11.812Z,746.00
2022-11-29T04:53:41.935Z,746.00
2022-11-29T04:54:11.933Z,745.00
2022-11-29T04:54:42.267Z,743.00
2022-11-29T04:55:12.690Z,742.00
2022-11-29T04:55:42.027Z,741.00
2022-11-29T04:56:12.024Z,741.00
2022-11-29T04:56:42.164Z,740.00
2022-11-29T04:57:12.173Z,737.00
2022-11-29T04:57:42.219Z,736.00
2022-11-29T04:58:12.252Z,737.00
2022-11-29T04:58:42.288Z,736.00
2022-11-29T04:59:12.323Z,734.00
2022-11-29T04:59:42.357Z,736.00
2022-11-29T05:00:12.415Z,737.00
2022-11-29T05:00:42.429Z,737.00
2022-11-29T05:01:12.591Z,738.00
2022-11-29T05:01:42.569Z,737.00
2022-11-29T05:02:12.583Z,737.00
2022-11-29T05:02:42.644Z,735.00
2022-11-29T05:03:12.665Z,736.00
2022-11-29T05:03:44.172Z,735.00
2022-11-29T05:04:12.711Z,736.00
2022-11-29T05:04:42.981Z,736.00
2022-11-29T05:05:12.811Z,737.00
2022-11-29T05:05:42.842Z,736.00
2022-11-29T05:06:12.869Z,736.00
2022-11-29T05:06:42.911Z,736.00
2022-11-29T05:07:12.937Z,737.00
2022-11-29T05:07:43.036Z,740.00
2022-11-29T05:08:13.050Z,742.00
2022-11-29T05:08:43.127Z,742.00
2022-11-29T05:09:13.155Z,742.00
2022-11-29T05:09:43.185Z,743.00
2022-11-29T05:10:13.215Z,745.00
2022-11-29T05:10:43.248Z,746.00
2022-11-29T05:11:13.281Z,747.00
2022-11-29T05:11:43.316Z,746.00
2022-11-29T05:12:13.339Z,749.00
2022-11-29T05:12:43.376Z,749.00
2022-11-29T05:13:13.415Z,752.00
2022-11-29T05:13:43.479Z,753.00
2022-11-29T05:14:13.516Z,753.00
2022-11-29T05:14:43.951Z,754.00
2022-11-29T05:15:13.557Z,753.00
2022-11-29T05:15:43.700Z,750.00
2022-11-29T05:16:13.766Z,750.00
2022-11-29T05:16:43.655Z,750.00
2022-11-29T05:17:13.686Z,749.00
2022-11-29T05:17:43.714Z,748.00
2022-11-29T05:18:13.754Z,747.00
2022-11-29T05:18:43.812Z,747.00
2022-11-29T05:19:13.843Z,746.00
2022-11-29T05:19:43.876Z,746.00
2022-11-29T05:20:13.908Z,747.00
2022-11-29T05:20:43.962Z,746.00
2022-11-29T05:21:13.990Z,747.00
2022-11-29T05:21:44.029Z,747.00
2022-11-29T05:22:14.056Z,746.00
2022-11-29T05:22:44.089Z,747.00
2022-11-29T05:23:14.130Z,746.00
2022-11-29T05:23:44.158Z,745.00
2022-11-29T05:24:14.191Z,746.00
2022-11-29T05:24:44.492Z,747.00
2022-11-29T05:25:14.236Z,747.00
2022-11-29T05:25:44.270Z,748.00
2022-11-29T05:26:14.301Z,750.00
2022-11-29T05:26:44.362Z,751.00
2022-11-29T05:27:14.404Z,750.00
2022-11-29T05:27:44.449Z,751.00
2022-11-29T05:28:14.492Z,751.00
2022-11-29T05:28:44.526Z,753.00
2022-11-29T05:29:14.562Z,755.00
2022-11-29T05:29:44.609Z,756.00
2022-11-29T05:30:14.674Z,757.00
2022-11-29T05:30:44.677Z,758.00
2022-11-29T05:31:14.775Z,759.00
2022-11-29T05:31:44.785Z,761.00
2022-11-29T05:32:14.821Z,763.00
2022-11-29T05:32:44.857Z,762.00
2022-11-29T05:33:14.900Z,760.00
2022-11-29T05:33:44.935Z,758.00
2022-11-29T05:34:14.963Z,756.00
2022-11-29T05:34:44.997Z,755.00
2022-11-29T05:35:15.065Z,755.00
2022-11-29T05:35:45.098Z,754.00
2022-11-29T05:36:15.147Z,756.00
2022-11-29T05:36:45.183Z,754.00
2022-11-29T05:37:15.217Z,755.00
2022-11-29T05:37:45.272Z,757.00
2022-11-29T05:38:15.346Z,757.00
2022-11-29T05:38:45.393Z,759.00
2022-11-29T05:39:15.429Z,759.00
2022-11-29T05:39:45.466Z,760.00
2022-11-29T05:40:15.497Z,759.00
2022-11-29T05:40:45.585Z,757.00
2022-11-29T05:41:15.666Z,756.00
2022-11-29T05:41:45.746Z,756.00
2022-11-29T05:42:15.812Z,756.00
2022-11-29T05:42:45.881Z,755.00
2022-11-29T05:43:15.994Z,755.00
2022-11-29T05:43:46.096Z,755.00
2022-11-29T05:44:16.145Z,753.00
2022-11-29T05:44:46.594Z,752.00
2022-11-29T05:45:16.276Z,752.00
2022-11-29T05:45:46.313Z,753.00
2022-11-29T05:46:16.417Z,754.00
2022-11-29T05:46:46.554Z,756.00
2022-11-29T05:47:16.526Z,759.00
2022-11-29T05:47:46.644Z,758.00
2022-11-29T05:48:16.758Z,757.00
2022-11-29T05:48:46.898Z,761.00
2022-11-29T05:49:16.928Z,761.00
2022-11-29T05:49:47.050Z,762.00
2022-11-29T05:50:17.168Z,764.00
2022-11-29T05:50:47.171Z,765.00
2022-11-29T05:51:17.164Z,766.00
2022-11-29T05:51:47.158Z,767.00
2022-11-29T05:52:17.161Z,770.00
2022-11-29T05:52:47.291Z,769.00
2022-11-29T05:53:17.295Z,769.00
2022-11-29T05:53:47.286Z,771.00
2022-11-29T05:54:17.403Z,772.00
2022-11-29T05:54:47.746Z,773.00
2022-11-29T05:55:17.522Z,772.00
2022-11-29T05:55:47.521Z,772.00
2022-11-29T05:56:17.511Z,771.00
2022-11-29T05:56:47.523Z,772.00
2022-11-29T05:57:17.558Z,771.00
2022-11-29T05:57:47.594Z,772.00
2022-11-29T05:58:17.647Z,773.00
2022-11-29T05:58:47.665Z,772.00
2022-11-29T05:59:17.695Z,770.00
2022-11-29T05:59:47.732Z,771.00
2022-11-29T06:00:17.758Z,771.00
2022-11-29T06:00:47.789Z,772.00
2022-11-29T06:01:17.826Z,774.00
2022-11-29T06:01:47.915Z,773.00
2022-11-29T06:02:18.052Z,772.00
2022-11-29T06:02:47.997Z,772.00
2022-11-29T06:03:18.080Z,774.00
2022-11-29T06:03:48.117Z,775.00
2022-11-29T06:04:18.155Z,776.00
2022-11-29T06:04:48.187Z,777.00
2022-11-29T06:05:18.221Z,777.00
2022-11-29T06:05:48.265Z,778.00
2022-11-29T06:06:18.289Z,777.00
2022-11-29T06:06:48.321Z,778.00
2022-11-29T06:07:18.405Z,780.00
2022-11-29T06:07:48.527Z,780.00
2022-11-29T06:08:18.460Z,778.00
2022-11-29T06:08:48.480Z,779.00
2022-11-29T06:09:18.508Z,779.00
2022-11-29T06:09:48.546Z,781.00
2022-11-29T06:10:18.579Z,782.00
2022-11-29T06:10:48.607Z,784.00
2022-11-29T06:11:18.644Z,790.00
2022-11-29T06:11:48.676Z,793.00
2022-11-29T06:12:21.279Z,797.00
2022-11-29T06:12:48.736Z,801.00
2022-11-29T06:13:18.771Z,804.00
2022-11-29T06:13:48.797Z,803.00
2022-11-29T06:14:18.830Z,802.00
2022-11-29T06:14:48.869Z,806.00